sensor_id;sensor_type;location;lat;lon;timestamp;pressure;altitude;pressure_sealevel;temperature;humidity
68508;BME280;55510;49.560;19.090;2023-11-19T08:22:57;96239.75;;;-0.16;100.00
68508;BME280;55510;49.560;19.090;2023-11-19T08:25:58;96240.75;;;0.13;100.00
68508;BME280;55510;49.560;19.090;2023-11-19T08:28:58;96238.50;;;0.25;100.00
68508;BME280;55510;49.560;19.090;2023-11-19T08:32:01;96239.94;;;0.28;100.00
68508;BME280;55510;49.560;19.090;2023-11-19T08:35:02;96252.22;;;0.27;100.00
68508;BME280;55510;49.560;19.090;2023-11-19T08:38:03;96255.00;;;0.26;100.00
68508;BME280;55510;49.560;19.090;2023-11-19T08:41:04;96257.47;;;0.12;100.00
68508;BME280;55510;49.560;19.090;2023-11-19T08:44:06;96253.38;;;0.10;100.00
68508;BME280;55510;49.560;19.090;2023-11-19T08:47:07;96236.88;;;0.09;100.00
68508;BME280;55510;49.560;19.090;2023-11-19T08:50:08;96224.78;;;0.08;100.00
68508;BME280;55510;49.560;19.090;2023-11-19T08:53:09;96232.09;;;0.13;100.00
68508;BME280;55510;49.560;19.090;2023-11-19T08:56:12;96216.38;;;-0.02;100.00
68508;BME280;55510;49.560;19.090;2023-11-19T08:59:14;96209.47;;;-0.10;100.00
68508;BME280;55510;49.560;19.090;2023-11-19T09:02:15;96226.22;;;-0.04;100.00
68508;BME280;55510;49.560;19.090;2023-11-19T09:05:16;96215.75;;;-0.04;100.00
68508;BME280;55510;49.560;19.090;2023-11-19T09:08:17;96208.09;;;-0.06;100.00
68508;BME280;55510;49.560;19.090;2023-11-19T09:11:18;96206.47;;;-0.07;100.00
68508;BME280;55510;49.560;19.090;2023-11-19T09:14:19;96218.19;;;-0.03;100.00
68508;BME280;55510;49.560;19.090;2023-11-19T09:17:24;96200.97;;;0.03;100.00
68508;BME280;55510;49.560;19.090;2023-11-19T09:20:25;96190.50;;;0.03;100.00
68508;BME280;55510;49.560;19.090;2023-11-19T09:23:25;96179.13;;;-0.04;100.00
68508;BME280;55510;49.560;19.090;2023-11-19T09:26:28;96165.88;;;0.12;100.00
68508;BME280;55510;49.560;19.090;2023-11-19T09:29:31;96180.34;;;0.30;100.00
68508;BME280;55510;49.560;19.090;2023-11-19T09:32:33;96168.56;;;0.56;100.00
68508;BME280;55510;49.560;19.090;2023-11-19T09:35:37;96144.22;;;0.77;100.00
68508;BME280;55510;49.560;19.090;2023-11-19T09:38:37;96137.59;;;0.81;100.00
68508;BME280;55510;49.560;19.090;2023-11-19T09:41:38;96134.16;;;0.81;100.00
68508;BME280;55510;49.560;19.090;2023-11-19T09:44:40;96142.16;;;0.94;100.00
68508;BME280;55510;49.560;19.090;2023-11-19T09:47:44;96151.34;;;1.12;100.00
68508;BME280;55510;49.560;19.090;2023-11-19T09:50:47;96151.13;;;1.35;100.00
68508;BME280;55510;49.560;19.090;2023-11-19T09:53:48;96151.09;;;1.64;100.00
68508;BME280;55510;49.560;19.090;2023-11-19T09:56:50;96150.81;;;1.80;100.00
68508;BME280;55510;49.560;19.090;2023-11-19T09:59:51;96142.69;;;1.75;100.00
68508;BME280;55510;49.560;19.090;2023-11-19T10:02:54;96136.75;;;1.59;100.00
68508;BME280;55510;49.560;19.090;2023-11-19T10:05:55;96134.34;;;1.58;100.00
68508;BME280;55510;49.560;19.090;2023-11-19T10:08:57;96133.78;;;1.34;100.00
68508;BME280;55510;49.560;19.090;2023-11-19T10:11:59;96133.44;;;1.15;100.00
68508;BME280;55510;49.560;19.090;2023-11-19T10:15:00;96110.75;;;1.29;100.00
68508;BME280;55510;49.560;19.090;2023-11-19T10:18:01;96120.72;;;1.41;100.00
68508;BME280;55510;49.560;19.090;2023-11-19T10:21:03;96102.69;;;1.31;100.00
68508;BME280;55510;49.560;19.090;2023-11-19T10:24:04;96093.91;;;1.45;100.00
68508;BME280;55510;49.560;19.090;2023-11-19T10:27:08;96082.50;;;1.32;100.00
68508;BME280;55510;49.560;19.090;2023-11-19T10:30:10;96069.66;;;1.37;100.00
68508;BME280;55510;49.560;19.090;2023-11-19T10:33:13;96047.53;;;1.46;100.00
68508;BME280;55510;49.560;19.090;2023-11-19T10:36:17;96041.50;;;1.52;100.00
68508;BME280;55510;49.560;19.090;2023-11-19T10:39:18;96045.91;;;1.52;100.00
68508;BME280;55510;49.560;19.090;2023-11-19T10:42:19;96044.00;;;1.74;100.00
68508;BME280;55510;49.560;19.090;2023-11-19T10:45:23;96057.69;;;1.27;100.00
68508;BME280;55510;49.560;19.090;2023-11-19T10:48:24;96051.56;;;1.13;100.00
68508;BME280;55510;49.560;19.090;2023-11-19T10:51:27;96046.66;;;1.04;100.00
68508;BME280;55510;49.560;19.090;2023-11-19T10:54:30;96042.50;;;1.16;100.00
68508;BME280;55510;49.560;19.090;2023-11-19T10:57:36;96034.13;;;0.99;100.00
68508;BME280;55510;49.560;19.090;2023-11-19T11:03:44;96010.69;;;0.62;100.00
68508;BME280;55510;49.560;19.090;2023-11-19T11:06:47;96002.38;;;0.52;100.00
68508;BME280;55510;49.560;19.090;2023-11-19T11:09:49;95998.25;;;0.42;100.00
68508;BME280;55510;49.560;19.090;2023-11-19T11:12:50;95999.81;;;0.15;100.00
68508;BME280;55510;49.560;19.090;2023-11-19T11:15:57;95986.06;;;0.06;100.00
68508;BME280;55510;49.560;19.090;2023-11-19T11:18:58;95998.69;;;0.03;100.00
68508;BME280;55510;49.560;19.090;2023-11-19T11:22:00;95994.66;;;0.00;100.00
68508;BME280;55510;49.560;19.090;2023-11-19T11:28:59;95995.63;;;-0.01;100.00
68508;BME280;55510;49.560;19.090;2023-11-19T11:32:35;96003.22;;;-0.06;100.00
68508;BME280;55510;49.560;19.090;2023-11-19T11:38:42;95994.69;;;0.07;100.00
68508;BME280;55510;49.560;19.090;2023-11-19T11:41:43;95990.34;;;0.14;100.00
68508;BME280;55510;49.560;19.090;2023-11-19T11:44:58;95983.31;;;0.14;100.00
68508;BME280;55510;49.560;19.090;2023-11-19T11:50:59;95978.31;;;0.20;100.00
68508;BME280;55510;49.560;19.090;2023-11-19T11:54:00;95977.69;;;0.18;100.00
68508;BME280;55510;49.560;19.090;2023-11-19T11:57:08;95978.22;;;0.06;100.00
68508;BME280;55510;49.560;19.090;2023-11-19T12:00:11;95969.00;;;0.10;100.00
68508;BME280;55510;49.560;19.090;2023-11-19T12:03:11;95954.91;;;0.11;100.00
68508;BME280;55510;49.560;19.090;2023-11-19T12:06:12;95973.84;;;0.13;100.00
68508;BME280;55510;49.560;19.090;2023-11-19T12:09:13;95971.34;;;0.27;100.00
68508;BME280;55510;49.560;19.090;2023-11-19T12:15:15;95973.34;;;0.25;100.00
68508;BME280;55510;49.560;19.090;2023-11-19T12:18:18;95964.38;;;0.12;100.00
68508;BME280;55510;49.560;19.090;2023-11-19T12:21:30;95944.63;;;0.10;100.00
68508;BME280;55510;49.560;19.090;2023-11-19T12:24:31;95940.97;;;0.04;100.00
68508;BME280;55510;49.560;19.090;2023-11-19T12:27:33;95945.91;;;-0.01;100.00
68508;BME280;55510;49.560;19.090;2023-11-19T12:30:36;95944.19;;;0.06;100.00
68508;BME280;55510;49.560;19.090;2023-11-19T12:33:37;95931.66;;;0.02;100.00
68508;BME280;55510;49.560;19.090;2023-11-19T12:36:39;95922.03;;;0.02;100.00
68508;BME280;55510;49.560;19.090;2023-11-19T12:39:40;95923.13;;;-0.07;100.00
68508;BME280;55510;49.560;19.090;2023-11-19T12:42:41;95929.31;;;-0.15;100.00
68508;BME280;55510;49.560;19.090;2023-11-19T12:45:42;95916.84;;;-0.13;100.00
68508;BME280;55510;49.560;19.090;2023-11-19T12:48:43;95905.03;;;-0.09;100.00
68508;BME280;55510;49.560;19.090;2023-11-19T12:51:43;95911.41;;;-0.11;100.00
68508;BME280;55510;49.560;19.090;2023-11-19T12:54:44;95927.94;;;-0.11;100.00
68508;BME280;55510;49.560;19.090;2023-11-19T12:57:45;95922.34;;;-0.08;100.00
68508;BME280;55510;49.560;19.090;2023-11-19T13:00:46;95921.13;;;-0.05;100.00
68508;BME280;55510;49.560;19.090;2023-11-19T13:03:47;95917.53;;;-0.04;100.00
68508;BME280;55510;49.560;19.090;2023-11-19T13:06:51;95916.34;;;-0.02;100.00
68508;BME280;55510;49.560;19.090;2023-11-19T13:10:03;95915.34;;;-0.01;100.00
68508;BME280;55510;49.560;19.090;2023-11-19T13:13:07;95906.69;;;-0.01;100.00
68508;BME280;55510;49.560;19.090;2023-11-19T13:16:08;95900.59;;;-0.08;100.00
68508;BME280;55510;49.560;19.090;2023-11-19T13:19:09;95896.56;;;-0.11;100.00
68508;BME280;55510;49.560;19.090;2023-11-19T13:22:10;95897.72;;;-0.13;100.00
68508;BME280;55510;49.560;19.090;2023-11-19T13:25:11;95909.50;;;-0.24;100.00
68508;BME280;55510;49.560;19.090;2023-11-19T13:28:12;95912.81;;;-0.37;100.00
68508;BME280;55510;49.560;19.090;2023-11-19T13:31:13;95914.84;;;-0.33;100.00
68508;BME280;55510;49.560;19.090;2023-11-19T13:34:14;95916.47;;;-0.32;100.00
68508;BME280;55510;49.560;19.090;2023-11-19T13:37:15;95912.94;;;-0.24;100.00
68508;BME280;55510;49.560;19.090;2023-11-19T13:40:16;95919.88;;;-0.09;100.00
68508;BME280;55510;49.560;19.090;2023-11-19T13:43:17;95925.38;;;-0.04;100.00
68508;BME280;55510;49.560;19.090;2023-11-19T13:46:17;95918.13;;;-0.02;100.00
68508;BME280;55510;49.560;19.090;2023-11-19T13:49:18;95904.13;;;0.06;100.00
68508;BME280;55510;49.560;19.090;2023-11-19T13:52:20;95907.94;;;0.03;100.00
68508;BME280;55510;49.560;19.090;2023-11-19T13:55:21;95902.50;;;0.05;100.00
68508;BME280;55510;49.560;19.090;2023-11-19T13:58:23;95908.38;;;0.07;100.00
68508;BME280;55510;49.560;19.090;2023-11-19T14:01:25;95919.66;;;0.07;100.00
68508;BME280;55510;49.560;19.090;2023-11-19T14:04:26;95912.41;;;0.09;100.00
68508;BME280;55510;49.560;19.090;2023-11-19T14:07:27;95918.28;;;0.11;100.00
68508;BME280;55510;49.560;19.090;2023-11-19T14:10:28;95912.03;;;0.12;100.00
68508;BME280;55510;49.560;19.090;2023-11-19T14:13:29;95909.28;;;0.21;100.00
68508;BME280;55510;49.560;19.090;2023-11-19T14:16:31;95916.31;;;0.20;100.00
68508;BME280;55510;49.560;19.090;2023-11-19T14:19:33;95912.34;;;0.24;100.00
68508;BME280;55510;49.560;19.090;2023-11-19T14:22:33;95917.75;;;0.23;100.00
68508;BME280;55510;49.560;19.090;2023-11-19T14:25:34;95907.53;;;0.28;100.00
68508;BME280;55510;49.560;19.090;2023-11-19T14:28:35;95908.38;;;0.35;100.00
68508;BME280;55510;49.560;19.090;2023-11-19T14:31:36;95911.75;;;0.29;100.00
68508;BME280;55510;49.560;19.090;2023-11-19T14:34:37;95905.34;;;0.32;100.00
68508;BME280;55510;49.560;19.090;2023-11-19T14:37:38;95914.19;;;0.31;100.00
68508;BME280;55510;49.560;19.090;2023-11-19T14:40:39;95912.59;;;0.36;100.00
68508;BME280;55510;49.560;19.090;2023-11-19T14:43:40;95906.59;;;0.42;100.00
68508;BME280;55510;49.560;19.090;2023-11-19T14:46:40;95909.88;;;0.45;100.00
68508;BME280;55510;49.560;19.090;2023-11-19T14:49:41;95907.25;;;0.45;100.00
68508;BME280;55510;49.560;19.090;2023-11-19T14:52:42;95915.09;;;0.45;100.00
68508;BME280;55510;49.560;19.090;2023-11-19T14:55:43;95917.34;;;0.48;100.00
68508;BME280;55510;49.560;19.090;2023-11-19T14:58:44;95912.50;;;0.45;100.00
68508;BME280;55510;49.560;19.090;2023-11-19T15:01:45;95915.53;;;0.48;100.00
68508;BME280;55510;49.560;19.090;2023-11-19T15:04:46;95914.34;;;0.51;100.00
68508;BME280;55510;49.560;19.090;2023-11-19T15:07:47;95905.09;;;0.55;100.00
68508;BME280;55510;49.560;19.090;2023-11-19T15:10:48;95900.66;;;0.55;100.00
68508;BME280;55510;49.560;19.090;2023-11-19T15:13:50;95915.34;;;0.50;100.00
68508;BME280;55510;49.560;19.090;2023-11-19T15:16:51;95905.47;;;0.52;100.00
68508;BME280;55510;49.560;19.090;2023-11-19T15:19:52;95913.94;;;0.54;100.00
68508;BME280;55510;49.560;19.090;2023-11-19T15:22:53;95900.25;;;0.52;100.00
68508;BME280;55510;49.560;19.090;2023-11-19T15:25:53;95910.91;;;0.50;100.00
68508;BME280;55510;49.560;19.090;2023-11-19T15:28:54;95902.03;;;0.51;100.00
68508;BME280;55510;49.560;19.090;2023-11-19T15:31:56;95907.09;;;0.53;100.00
68508;BME280;55510;49.560;19.090;2023-11-19T15:34:58;95916.56;;;0.54;100.00
68508;BME280;55510;49.560;19.090;2023-11-19T15:37:59;95901.88;;;0.53;100.00
68508;BME280;55510;49.560;19.090;2023-11-19T15:41:00;95902.66;;;0.53;100.00
68508;BME280;55510;49.560;19.090;2023-11-19T15:44:01;95893.00;;;0.54;100.00
68508;BME280;55510;49.560;19.090;2023-11-19T15:47:04;95906.72;;;0.56;100.00
68508;BME280;55510;49.560;19.090;2023-11-19T15:50:05;95906.75;;;0.63;100.00
68508;BME280;55510;49.560;19.090;2023-11-19T15:53:07;95895.09;;;0.65;100.00
68508;BME280;55510;49.560;19.090;2023-11-19T15:56:08;95914.41;;;0.64;100.00
68508;BME280;55510;49.560;19.090;2023-11-19T15:59:10;95926.13;;;0.68;100.00
68508;BME280;55510;49.560;19.090;2023-11-19T16:02:11;95931.56;;;0.67;100.00
68508;BME280;55510;49.560;19.090;2023-11-19T16:05:12;95937.38;;;0.62;100.00
68508;BME280;55510;49.560;19.090;2023-11-19T16:08:15;95924.66;;;0.59;100.00
68508;BME280;55510;49.560;19.090;2023-11-19T16:11:16;95930.06;;;0.51;100.00
68508;BME280;55510;49.560;19.090;2023-11-19T16:14:18;95930.44;;;0.48;100.00
68508;BME280;55510;49.560;19.090;2023-11-19T16:17:18;95925.22;;;0.54;100.00
68508;BME280;55510;49.560;19.090;2023-11-19T16:20:20;95919.41;;;0.59;100.00
68508;BME280;55510;49.560;19.090;2023-11-19T16:23:21;95909.19;;;0.64;100.00
68508;BME280;55510;49.560;19.090;2023-11-19T16:26:22;95898.31;;;0.67;100.00
68508;BME280;55510;49.560;19.090;2023-11-19T16:29:23;95893.06;;;0.67;100.00
68508;BME280;55510;49.560;19.090;2023-11-19T16:32:24;95898.31;;;0.67;100.00
68508;BME280;55510;49.560;19.090;2023-11-19T16:35:25;95904.78;;;0.71;100.00
68508;BME280;55510;49.560;19.090;2023-11-19T16:38:26;95909.44;;;0.76;100.00
68508;BME280;55510;49.560;19.090;2023-11-19T16:41:27;95902.63;;;0.82;100.00
68508;BME280;55510;49.560;19.090;2023-11-19T16:44:28;95899.59;;;0.85;100.00
68508;BME280;55510;49.560;19.090;2023-11-19T16:47:29;95890.72;;;0.79;100.00
68508;BME280;55510;49.560;19.090;2023-11-19T16:50:34;95883.06;;;0.78;100.00
68508;BME280;55510;49.560;19.090;2023-11-19T16:53:37;95894.16;;;0.80;100.00
68508;BME280;55510;49.560;19.090;2023-11-19T16:56:41;95899.00;;;0.83;100.00
68508;BME280;55510;49.560;19.090;2023-11-19T16:59:42;95894.38;;;0.85;100.00
68508;BME280;55510;49.560;19.090;2023-11-19T17:02:43;95907.25;;;0.80;100.00
68508;BME280;55510;49.560;19.090;2023-11-19T17:05:43;95903.78;;;0.72;100.00
68508;BME280;55510;49.560;19.090;2023-11-19T17:08:44;95916.88;;;0.72;100.00
68508;BME280;55510;49.560;19.090;2023-11-19T17:11:45;95918.09;;;0.77;100.00
68508;BME280;55510;49.560;19.090;2023-11-19T17:14:46;95917.53;;;0.81;100.00
68508;BME280;55510;49.560;19.090;2023-11-19T17:17:47;95934.50;;;0.85;100.00
68508;BME280;55510;49.560;19.090;2023-11-19T17:20:49;95930.25;;;0.84;100.00
68508;BME280;55510;49.560;19.090;2023-11-19T17:23:49;95924.63;;;0.88;100.00
68508;BME280;55510;49.560;19.090;2023-11-19T17:26:50;95917.94;;;0.85;100.00
68508;BME280;55510;49.560;19.090;2023-11-19T17:29:52;95931.66;;;0.87;100.00
68508;BME280;55510;49.560;19.090;2023-11-19T17:32:55;95934.72;;;0.91;100.00
68508;BME280;55510;49.560;19.090;2023-11-19T17:35:58;95926.84;;;0.91;100.00
68508;BME280;55510;49.560;19.090;2023-11-19T17:39:00;95919.34;;;0.81;100.00
68508;BME280;55510;49.560;19.090;2023-11-19T17:42:04;95918.88;;;0.70;100.00
68508;BME280;55510;49.560;19.090;2023-11-19T17:45:06;95915.88;;;0.74;100.00
68508;BME280;55510;49.560;19.090;2023-11-19T17:48:06;95901.56;;;0.69;100.00
68508;BME280;55510;49.560;19.090;2023-11-19T17:51:07;95902.78;;;0.74;100.00
68508;BME280;55510;49.560;19.090;2023-11-19T17:54:08;95897.16;;;0.77;100.00
68508;BME280;55510;49.560;19.090;2023-11-19T17:57:12;95913.88;;;0.76;100.00
68508;BME280;55510;49.560;19.090;2023-11-19T18:00:13;95918.31;;;0.75;100.00
68508;BME280;55510;49.560;19.090;2023-11-19T18:03:16;95907.63;;;0.77;100.00
68508;BME280;55510;49.560;19.090;2023-11-19T18:06:18;95922.13;;;0.72;100.00
68508;BME280;55510;49.560;19.090;2023-11-19T18:09:19;95912.84;;;0.70;100.00
68508;BME280;55510;49.560;19.090;2023-11-19T18:12:20;95917.09;;;0.71;100.00
68508;BME280;55510;49.560;19.090;2023-11-19T18:15:22;95920.50;;;0.71;100.00
68508;BME280;55510;49.560;19.090;2023-11-19T18:18:24;95916.09;;;0.79;100.00
68508;BME280;55510;49.560;19.090;2023-11-19T18:21:25;95917.53;;;0.81;100.00
68508;BME280;55510;49.560;19.090;2023-11-19T18:24:27;95916.94;;;0.86;100.00
68508;BME280;55510;49.560;19.090;2023-11-19T18:27:28;95920.56;;;0.85;100.00
68508;BME280;55510;49.560;19.090;2023-11-19T18:30:29;95914.09;;;0.81;100.00
68508;BME280;55510;49.560;19.090;2023-11-19T18:33:31;95913.69;;;0.77;100.00
68508;BME280;55510;49.560;19.090;2023-11-19T18:36:35;95908.78;;;0.67;100.00
68508;BME280;55510;49.560;19.090;2023-11-19T18:39:41;95907.16;;;0.66;100.00
68508;BME280;55510;49.560;19.090;2023-11-19T18:42:42;95905.59;;;0.72;100.00
68508;BME280;55510;49.560;19.090;2023-11-19T18:45:43;95910.25;;;0.77;100.00
68508;BME280;55510;49.560;19.090;2023-11-19T18:48:44;95918.72;;;0.79;100.00
68508;BME280;55510;49.560;19.090;2023-11-19T18:51:45;95922.97;;;0.80;100.00
68508;BME280;55510;49.560;19.090;2023-11-19T18:54:46;95922.19;;;0.86;100.00
68508;BME280;55510;49.560;19.090;2023-11-19T18:57:47;95909.50;;;0.90;100.00
68508;BME280;55510;49.560;19.090;2023-11-19T19:00:48;95893.63;;;0.91;100.00
68508;BME280;55510;49.560;19.090;2023-11-19T19:03:51;95901.44;;;0.84;100.00
68508;BME280;55510;49.560;19.090;2023-11-19T19:06:52;95864.19;;;0.89;100.00
68508;BME280;55510;49.560;19.090;2023-11-19T19:09:54;95876.28;;;0.90;100.00
68508;BME280;55510;49.560;19.090;2023-11-19T19:12:55;95889.47;;;0.68;100.00
68508;BME280;55510;49.560;19.090;2023-11-19T19:15:57;95883.75;;;0.58;100.00
68508;BME280;55510;49.560;19.090;2023-11-19T19:18:58;95880.38;;;0.64;100.00
68508;BME280;55510;49.560;19.090;2023-11-19T19:21:59;95877.19;;;0.69;100.00
68508;BME280;55510;49.560;19.090;2023-11-19T19:25:00;95893.53;;;0.78;100.00
68508;BME280;55510;49.560;19.090;2023-11-19T19:28:02;95878.84;;;0.83;100.00
68508;BME280;55510;49.560;19.090;2023-11-19T19:31:06;95888.75;;;0.88;100.00
68508;BME280;55510;49.560;19.090;2023-11-19T19:34:07;95892.63;;;0.92;100.00
68508;BME280;55510;49.560;19.090;2023-11-19T19:37:09;95899.88;;;0.97;100.00
68508;BME280;55510;49.560;19.090;2023-11-19T19:40:11;95892.84;;;0.97;100.00
68508;BME280;55510;49.560;19.090;2023-11-19T19:43:12;95903.72;;;1.01;100.00
68508;BME280;55510;49.560;19.090;2023-11-19T19:46:13;95904.34;;;1.03;100.00
68508;BME280;55510;49.560;19.090;2023-11-19T19:49:14;95903.94;;;0.99;100.00
68508;BME280;55510;49.560;19.090;2023-11-19T19:52:16;95894.69;;;1.04;100.00
68508;BME280;55510;49.560;19.090;2023-11-19T19:55:17;95902.31;;;0.98;100.00
68508;BME280;55510;49.560;19.090;2023-11-19T19:58:21;95901.09;;;0.94;100.00
68508;BME280;55510;49.560;19.090;2023-11-19T20:01:22;95906.56;;;0.99;100.00
68508;BME280;55510;49.560;19.090;2023-11-19T20:04:23;95905.31;;;0.95;100.00
68508;BME280;55510;49.560;19.090;2023-11-19T20:07:24;95897.25;;;0.97;100.00
68508;BME280;55510;49.560;19.090;2023-11-19T20:10:25;95905.31;;;0.95;100.00
68508;BME280;55510;49.560;19.090;2023-11-19T20:13:26;95900.59;;;0.84;100.00
68508;BME280;55510;49.560;19.090;2023-11-19T20:16:29;95896.59;;;0.88;100.00
68508;BME280;55510;49.560;19.090;2023-11-19T20:19:30;95890.00;;;0.92;100.00
68508;BME280;55510;49.560;19.090;2023-11-19T20:22:31;95899.88;;;0.97;100.00
68508;BME280;55510;49.560;19.090;2023-11-19T20:25:31;95899.69;;;0.98;100.00
68508;BME280;55510;49.560;19.090;2023-11-19T20:28:32;95907.34;;;1.00;100.00
68508;BME280;55510;49.560;19.090;2023-11-19T20:31:33;95896.88;;;1.00;100.00
68508;BME280;55510;49.560;19.090;2023-11-19T20:34:34;95894.84;;;1.02;100.00
68508;BME280;55510;49.560;19.090;2023-11-19T20:37:35;95896.47;;;1.03;100.00
68508;BME280;55510;49.560;19.090;2023-11-19T20:40:39;95887.22;;;1.07;100.00
68508;BME280;55510;49.560;19.090;2023-11-19T20:43:39;95897.91;;;1.06;100.00
68508;BME280;55510;49.560;19.090;2023-11-19T20:47:00;95904.75;;;1.07;100.00
68508;BME280;55510;49.560;19.090;2023-11-19T20:50:05;95893.06;;;1.03;100.00
68508;BME280;55510;49.560;19.090;2023-11-19T20:53:10;95874.94;;;1.08;100.00
68508;BME280;55510;49.560;19.090;2023-11-19T20:56:10;95869.28;;;1.11;100.00
68508;BME280;55510;49.560;19.090;2023-11-19T20:59:11;95870.72;;;1.13;100.00
68508;BME280;55510;49.560;19.090;2023-11-19T21:02:17;95880.78;;;1.10;100.00
68508;BME280;55510;49.560;19.090;2023-11-19T21:05:18;95879.56;;;1.06;100.00
68508;BME280;55510;49.560;19.090;2023-11-19T21:08:22;95886.41;;;1.07;100.00
68508;BME280;55510;49.560;19.090;2023-11-19T21:11:23;95889.63;;;1.02;100.00
68508;BME280;55510;49.560;19.090;2023-11-19T21:14:26;95892.66;;;1.06;100.00
68508;BME280;55510;49.560;19.090;2023-11-19T21:17:26;95887.03;;;1.09;100.00
68508;BME280;55510;49.560;19.090;2023-11-19T21:20:27;95885.44;;;1.14;100.00
68508;BME280;55510;49.560;19.090;2023-11-19T21:23:28;95899.97;;;1.17;100.00
68508;BME280;55510;49.560;19.090;2023-11-19T21:26:30;95902.19;;;1.20;100.00
68508;BME280;55510;49.560;19.090;2023-11-19T21:29:31;95893.31;;;1.21;100.00
68508;BME280;55510;49.560;19.090;2023-11-19T21:32:33;95894.94;;;1.22;100.00
68508;BME280;55510;49.560;19.090;2023-11-19T21:35:34;95904.59;;;1.15;100.00
68508;BME280;55510;49.560;19.090;2023-11-19T21:38:34;95900.13;;;1.09;100.00
68508;BME280;55510;49.560;19.090;2023-11-19T21:41:38;95891.09;;;1.11;100.00
68508;BME280;55510;49.560;19.090;2023-11-19T21:44:38;95887.25;;;1.14;100.00
68508;BME280;55510;49.560;19.090;2023-11-19T21:47:39;95882.63;;;1.16;100.00
68508;BME280;55510;49.560;19.090;2023-11-19T21:50:40;95879.59;;;1.19;100.00
68508;BME280;55510;49.560;19.090;2023-11-19T21:53:42;95890.09;;;1.19;100.00
68508;BME280;55510;49.560;19.090;2023-11-19T21:56:43;95884.44;;;1.15;100.00
68508;BME280;55510;49.560;19.090;2023-11-19T21:59:43;95881.22;;;1.13;100.00
68508;BME280;55510;49.560;19.090;2023-11-19T22:02:45;95879.16;;;1.09;100.00
68508;BME280;55510;49.560;19.090;2023-11-19T22:05:46;95886.41;;;1.07;100.00
68508;BME280;55510;49.560;19.090;2023-11-19T22:08:47;95877.34;;;1.03;100.00
68508;BME280;55510;49.560;19.090;2023-11-19T22:11:48;95888.81;;;1.01;100.00
68508;BME280;55510;49.560;19.090;2023-11-19T22:14:48;95884.59;;;1.00;100.00
68508;BME280;55510;49.560;19.090;2023-11-19T22:17:49;95886.00;;;1.03;100.00
68508;BME280;55510;49.560;19.090;2023-11-19T22:20:50;95890.44;;;1.09;100.00
68508;BME280;55510;49.560;19.090;2023-11-19T22:23:50;95890.47;;;1.16;100.00
68508;BME280;55510;49.560;19.090;2023-11-19T22:26:51;95885.25;;;1.16;100.00
68508;BME280;55510;49.560;19.090;2023-11-19T22:29:52;95886.84;;;1.17;100.00
68508;BME280;55510;49.560;19.090;2023-11-19T22:32:53;95895.31;;;1.19;100.00
68508;BME280;55510;49.560;19.090;2023-11-19T22:35:53;95887.84;;;1.16;100.00
68508;BME280;55510;49.560;19.090;2023-11-19T22:38:54;95883.44;;;1.17;100.00
68508;BME280;55510;49.560;19.090;2023-11-19T22:41:55;95892.09;;;1.17;100.00
68508;BME280;55510;49.560;19.090;2023-11-19T22:44:56;95895.09;;;1.14;100.00
68508;BME280;55510;49.560;19.090;2023-11-19T22:47:57;95887.84;;;1.16;100.00
68508;BME280;55510;49.560;19.090;2023-11-19T22:50:57;95894.53;;;1.19;100.00
68508;BME280;55510;49.560;19.090;2023-11-19T22:53:58;95885.66;;;1.20;100.00
68508;BME280;55510;49.560;19.090;2023-11-19T22:56:59;95884.44;;;1.22;100.00
68508;BME280;55510;49.560;19.090;2023-11-19T23:00:00;95886.47;;;1.20;100.00
68508;BME280;55510;49.560;19.090;2023-11-19T23:03:00;95881.22;;;1.20;100.00
68508;BME280;55510;49.560;19.090;2023-11-19T23:06:04;95871.53;;;1.14;100.00
68508;BME280;55510;49.560;19.090;2023-11-19T23:09:06;95867.50;;;1.11;100.00
68508;BME280;55510;49.560;19.090;2023-11-19T23:12:07;95870.31;;;1.10;100.00
68508;BME280;55510;49.560;19.090;2023-11-19T23:15:08;95872.72;;;1.05;100.00
68508;BME280;55510;49.560;19.090;2023-11-19T23:18:15;95871.09;;;1.04;100.00
68508;BME280;55510;49.560;19.090;2023-11-19T23:21:15;95875.13;;;1.06;100.00
68508;BME280;55510;49.560;19.090;2023-11-19T23:24:18;95871.06;;;0.97;100.00
68508;BME280;55510;49.560;19.090;2023-11-19T23:27:19;95872.47;;;0.99;100.00
68508;BME280;55510;49.560;19.090;2023-11-19T23:30:20;95854.53;;;1.03;100.00
68508;BME280;55510;49.560;19.090;2023-11-19T23:33:20;95858.59;;;1.06;100.00
68508;BME280;55510;49.560;19.090;2023-11-19T23:36:21;95860.22;;;1.07;100.00
68508;BME280;55510;49.560;19.090;2023-11-19T23:39:22;95859.00;;;1.09;100.00
68508;BME280;55510;49.560;19.090;2023-11-19T23:42:23;95853.34;;;1.06;100.00
68508;BME280;55510;49.560;19.090;2023-11-19T23:45:23;95860.00;;;1.01;100.00
68508;BME280;55510;49.560;19.090;2023-11-19T23:48:24;95863.22;;;1.04;100.00
68508;BME280;55510;49.560;19.090;2023-11-19T23:51:25;95872.31;;;1.08;100.00
68508;BME280;55510;49.560;19.090;2023-11-19T23:54:26;95867.69;;;1.10;100.00
68508;BME280;55510;49.560;19.090;2023-11-19T23:57:27;95867.28;;;1.13;100.00
